KPSM/PSM METAR and TAF weather

Enter ICAO airport designator
Station Type Date Time Source
KPSM METAR 2021/09/28 03:56 UTC NOAA

KPSM 280356Z 00000KT 10SM BKN120 BKN200 16/14 A2979 RMK AO2A SLP090 T01600135


Station Type Date Time Source
KPSM Decoded METAR 2021/09/28 03:56 UTC NOAA

Pease Air Force Base / Portsmouth, NH, United States (KPSM) 43-05N 070-49W
Sep 27, 2021 - 11:56 PM EDT / 2021.09.28 0356 UTC
Wind: Calm:0
Visibility: 10 mile(s):0
Sky conditions: mostly cloudy
Temperature: 60.8 F (16.0 C)
Dew Point: 56.3 F (13.5 C)
Relative Humidity: 85%
Pressure (altimeter): 29.79 in. Hg (1008 hPa)
ob: KPSM 280356Z 00000KT 10SM BKN120 BKN200 16/14 A2979 RMK AO2A SLP090 T01600135
cycle: 4

Station Type Date Time Source
KPSM TAF 2021/09/27 18:45 UTC NOAA

TAF KPSM 271742Z 2718/2818 22007KT P6SM BKN070
FM281300 31007KT P6SM BKN050

Example: see airport list